Sparta, WI

8:56 AM CDT on October 20, 2014 (GMT -0500)
Sparta-Fort McCoy | Change Station
CLOSE
Current Station
Airport
Location: Sparta,
Elevation: 837 ft
Nearby Weather Stations

Elev 837 ft 43.96 °N, 90.74 °W | Updated 21 minutes ago

Clear
Clear
49 °F
Feels Like 49 °F
N
5
Wind Variable Wind from WNW

Today
High -- | Low -- °F
--% Chance of Precip.
Yesterday
High -- | Low -- °F
Precip. -- in
7:24 AM 6:11 PM
Waning Crescent, 11% visible
Pressure 29.93 in
Visibility 10.0 miles
Clouds Clear
Dew Point 42 °F
Humidity 76%
Rainfall 0.00 in
Snow Depth Not available.
UV 1 out of 12
Pollen 1.20 out of 12
Air Quality Not available.
Flu Activity Sporadic
METAR KCMY 201335Z AUTO 29004KT 10SM CLR 09/05 A2993 RMK AO2 T00940053

More Conditions Fewer Conditions

Pressure 29.93 in
Visibility 10.0 miles
Clouds Clear
Dew Point 42 °F
Humidity 76%
Rainfall 0.00 in
Snow Depth Not available.
UV 1 out of 12
Pollen 1.20 out of 12
Air Quality Not available.
Flu Activity Sporadic
METAR KCMY 201335Z AUTO 29004KT 10SM CLR 09/05 A2993 RMK AO2 T00940053

More Conditions Fewer Conditions

10-Day Weather Forecast

Almanac

Astronomy

Oct. 20, 2014 Rise Set
Actual Time 7:24 AM CDT 6:11 PM CDT
Civil Twilight 6:54 AM CDT 6:40 PM CDT
Nautical Twilight 6:21 AM CDT 7:14 PM CDT
Astronomical Twilight 5:47 AM CDT 7:47 PM CDT
Moon 4:06 AM CDT 4:39 PM CDT
Length of Visible Light 11h 45m
Length of Day
10h 47m
Waning Crescent, 11% of the Moon is Illuminated
Today
Waning Crescent
Oct 23
New
Oct 30
First Quarter
Nov 6
Full
Nov 14
Last Quarter

Today's Extremes

State Highs State Lows

Community

WunderPhotos

Upload Photos

1,763,382 photos uploaded!

Nearby

Snow Depth

Station Depth Elevation
No new snow has been reported.

Earthquake Activity

City Distance Mag. Time & Date
No recent earthquake activity has been reported nearby.
Minimum magnitude displayed is 2.5.

Coastal Water Temperatures

Place Temperature
No Stations Reporting

Nearby Weather Stations